Time;durP1;ratioP1;P1;durP2;ratioP2;P2;SDS_P1;SDS_P2;PMS_P1;PMS_P2;Temp;Humidity;BMP_temperature;BMP_pressure;BME280_temperature;BME280_humidity;BME280_pressure;Samples;Min_cycle;Max_cycle;Signal;HPM_P1;HPM_P2
2021/07/25 00:01:57;;;;;;;82.07;43.92;;;;;;;17.42;84.40;99650.50;10387476;28;20246;-75
2021/07/25 00:07:02;;;;;;;86.10;44.67;;;;;;;17.46;84.53;99651.81;10371008;28;20237;-76
2021/07/25 00:12:05;;;;;;;81.93;43.08;;;;;;;17.38;84.48;99649.19;10385386;28;20241;-76
2021/07/25 00:17:08;;;;;;;77.03;42.70;;;;;;;17.32;84.15;99652.66;10385281;28;20233;-76
2021/07/25 00:22:13;;;;;;;80.15;41.40;;;;;;;17.26;84.32;99647.97;10370282;28;20263;-76
2021/07/25 00:27:16;;;;;;;74.53;40.53;;;;;;;17.17;84.51;99625.50;10384659;28;20259;-76
2021/07/25 00:32:19;;;;;;;83.65;41.67;;;;;;;17.14;84.44;99631.31;10367280;28;20238;-76
2021/07/25 00:37:24;;;;;;;80.82;39.95;;;;;;;16.96;84.52;99631.63;10384877;28;20290;-76
2021/07/25 00:42:37;;;;;;;79.22;41.20;;;;;;;16.81;84.88;99634.31;10387166;28;21509;-76
2021/07/25 00:47:40;;;;;;;76.32;38.13;;;;;;;16.86;84.33;99624.75;10394086;28;20233;-76
2021/07/25 00:52:44;;;;;;;77.18;39.30;;;;;;;16.85;84.43;99631.22;10392381;28;20241;-76
2021/07/25 00:57:48;;;;;;;75.65;40.13;;;;;;;16.91;84.37;99630.47;10392177;28;20230;-76
2021/07/25 01:02:59;;;;;;;75.60;39.38;;;;;;;16.84;84.45;99638.53;10393422;28;20234;-76
2021/07/25 01:08:10;;;;;;;66.78;36.22;;;;;;;16.83;84.13;99636.81;10392118;28;20225;-76
2021/07/25 01:13:18;;;;;;;69.05;37.45;;;;;;;16.80;84.26;99632.59;10391335;28;20233;-76
2021/07/25 01:18:21;;;;;;;77.35;36.45;;;;;;;16.78;84.23;99637.38;10395338;28;20241;-76
2021/07/25 01:23:26;;;;;;;66.63;35.22;;;;;;;16.85;83.97;99637.50;10391346;28;20233;-76
2021/07/25 01:28:34;;;;;;;65.60;35.63;;;;;;;16.88;83.24;99637.13;10391225;28;20249;-76
2021/07/25 01:33:39;;;;;;;62.05;32.88;;;;;;;16.98;83.06;99643.13;10393989;28;20234;-76
2021/07/25 01:38:43;;;;;;;60.55;31.48;;;;;;;16.90;82.48;99635.06;10391356;28;20245;-76
2021/07/25 01:43:48;;;;;;;54.85;29.85;;;;;;;16.93;82.31;99626.56;10392526;28;20271;-76
2021/07/25 01:48:51;;;;;;;52.60;29.17;;;;;;;16.99;81.93;99630.41;10389758;28;20241;-76
2021/07/25 01:53:55;;;;;;;49.13;28.90;;;;;;;16.90;81.67;99628.81;10390385;28;20233;-77
2021/07/25 01:58:59;;;;;;;55.33;29.27;;;;;;;16.90;81.56;99626.09;10390490;28;20257;-76
2021/07/25 02:04:01;;;;;;;46.22;25.90;;;;;;;16.76;81.47;99634.00;10389900;28;20237;-77
2021/07/25 02:09:08;;;;;;;46.03;27.42;;;;;;;16.80;81.41;99638.03;10391110;28;20241;-76
2021/07/25 02:14:11;;;;;;;46.22;26.13;;;;;;;16.71;81.27;99636.41;10389895;28;20236;-76
2021/07/25 02:19:14;;;;;;;46.75;24.98;;;;;;;16.64;81.64;99634.63;10371463;28;20372;-77
2021/07/25 02:24:19;;;;;;;42.70;25.13;;;;;;;16.51;81.38;99640.63;10393296;28;20229;-77
2021/07/25 02:29:22;;;;;;;38.13;23.25;;;;;;;16.53;81.54;99634.00;10394284;28;20238;-77
2021/07/25 02:34:25;;;;;;;41.97;24.30;;;;;;;16.52;81.88;99631.50;10393230;28;20272;-77
2021/07/25 02:39:29;;;;;;;40.78;24.13;;;;;;;16.44;81.12;99632.41;10393434;28;20249;-77
2021/07/25 02:44:33;;;;;;;41.15;23.92;;;;;;;16.39;81.38;99639.38;10391617;28;20241;-77
2021/07/25 02:49:36;;;;;;;40.00;23.70;;;;;;;16.35;81.19;99637.03;10392036;28;20342;-77
2021/07/25 02:54:41;;;;;;;38.35;22.70;;;;;;;16.28;81.13;99643.34;10387944;28;21789;-77
2021/07/25 02:59:44;;;;;;;40.78;22.95;;;;;;;16.27;81.37;99644.38;10390282;28;20370;-77
2021/07/25 03:04:47;;;;;;;43.60;24.08;;;;;;;16.25;81.70;99643.69;10387125;28;20234;-77
2021/07/25 03:09:52;;;;;;;44.22;25.70;;;;;;;16.19;81.46;99644.41;10389087;28;20295;-76
2021/07/25 03:14:55;;;;;;;44.10;24.77;;;;;;;16.11;81.55;99646.13;10389106;28;21509;-76
2021/07/25 03:19:58;;;;;;;44.95;24.83;;;;;;;16.04;81.89;99647.00;10376854;28;20249;-77
2021/07/25 03:25:02;;;;;;;44.38;24.58;;;;;;;15.91;82.04;99653.84;10389799;28;20233;-77
2021/07/25 03:30:07;;;;;;;43.90;24.00;;;;;;;15.96;82.16;99661.44;10389479;28;20233;-77
2021/07/25 03:35:10;;;;;;;46.55;24.75;;;;;;;15.95;81.98;99661.63;10370616;28;20242;-76
2021/07/25 03:40:16;;;;;;;47.83;25.13;;;;;;;15.96;82.09;99666.00;10364050;28;20238;-75
2021/07/25 03:45:19;;;;;;;46.80;23.83;;;;;;;15.95;81.98;99667.03;10346020;28;20242;-75
2021/07/25 03:50:22;;;;;;;41.35;24.25;;;;;;;16.00;82.06;99668.19;10332515;28;20594;-75
2021/07/25 03:55:26;;;;;;;41.67;23.05;;;;;;;15.93;81.76;99661.78;10333024;28;20231;-74
2021/07/25 04:00:29;;;;;;;43.92;23.27;;;;;;;15.98;82.03;99648.56;10339623;28;20248;-75
2021/07/25 04:05:32;;;;;;;41.63;23.63;;;;;;;15.96;82.13;99656.00;10317217;28;20263;-75
2021/07/25 04:10:41;;;;;;;47.38;22.73;;;;;;;15.94;82.12;99658.09;10327598;28;20242;-75
2021/07/25 04:15:46;;;;;;;42.13;23.65;;;;;;;16.11;82.12;99654.25;10332096;28;20235;-74
2021/07/25 04:20:49;;;;;;;49.50;25.17;;;;;;;16.19;82.82;99655.25;10329046;28;20231;-75
2021/07/25 04:25:54;;;;;;;45.97;24.33;;;;;;;16.16;81.85;99656.44;10353057;28;20242;-77
2021/07/25 04:30:57;;;;;;;42.88;24.08;;;;;;;16.19;81.70;99674.22;10365158;28;20234;-75
2021/07/25 04:36:01;;;;;;;47.33;24.15;;;;;;;16.34;81.80;99675.16;10377599;28;20659;-75
2021/07/25 04:41:09;;;;;;;41.13;22.02;;;;;;;16.35;81.53;99676.84;10348071;28;20874;-75
2021/07/25 04:46:18;;;;;;;45.40;24.67;;;;;;;16.40;81.36;99679.88;10340031;28;20245;-75
2021/07/25 04:51:23;;;;;;;45.17;23.52;;;;;;;16.39;81.25;99689.00;10353780;28;20261;-76
2021/07/25 04:56:28;;;;;;;40.55;22.58;;;;;;;16.53;80.94;99703.66;10352228;28;20253;-75
2021/07/25 05:01:37;;;;;;;43.80;22.52;;;;;;;16.46;80.68;99706.25;10352109;28;21488;-75
2021/07/25 05:06:41;;;;;;;38.13;21.77;;;;;;;16.59;80.63;99711.94;10353855;28;20233;-75
2021/07/25 05:11:48;;;;;;;37.85;21.73;;;;;;;16.73;80.44;99707.59;10354890;28;20238;-75
2021/07/25 05:16:59;;;;;;;34.80;21.02;;;;;;;16.85;81.41;99713.44;10357065;28;20233;-75
2021/07/25 05:22:07;;;;;;;35.97;20.98;;;;;;;17.01;81.21;99715.16;10345826;28;20651;-75
2021/07/25 05:27:19;;;;;;;32.75;19.95;;;;;;;17.18;81.97;99716.75;10342818;28;20273;-76
2021/07/25 05:32:22;;;;;;;35.67;20.67;;;;;;;17.34;82.47;99718.47;10351230;28;20231;-75
2021/07/25 05:37:25;;;;;;;36.90;21.48;;;;;;;17.41;81.37;99713.97;10353703;28;20238;-75
2021/07/25 05:42:29;;;;;;;33.55;19.30;;;;;;;17.50;80.78;99720.19;10349901;28;20724;-76
2021/07/25 05:47:32;;;;;;;30.52;20.05;;;;;;;17.67;82.14;99712.69;10351433;28;20634;-75
2021/07/25 05:52:49;;;;;;;32.80;19.25;;;;;;;17.65;80.04;99710.16;10353114;28;20245;-76
2021/07/25 05:57:54;;;;;;;30.85;17.90;;;;;;;17.70;79.53;99718.59;10351132;28;21499;-76
2021/07/25 06:02:58;;;;;;;30.70;17.73;;;;;;;17.74;78.02;99719.03;10351652;28;20336;-75
2021/07/25 06:08:03;;;;;;;30.30;17.83;;;;;;;17.79;78.19;99716.59;10351805;28;20230;-75
2021/07/25 06:13:08;;;;;;;27.38;16.75;;;;;;;17.81;77.68;99711.00;10350883;28;20710;-75
2021/07/25 06:18:10;;;;;;;30.88;18.10;;;;;;;18.09;78.94;99716.63;10350677;28;20262;-75
2021/07/25 06:23:14;;;;;;;31.73;18.50;;;;;;;18.33;79.07;99726.34;10352888;28;20241;-75
2021/07/25 06:28:19;;;;;;;27.08;16.80;;;;;;;18.50;78.70;99726.94;10350496;28;20223;-75
2021/07/25 06:33:21;;;;;;;28.23;17.23;;;;;;;18.83;79.37;99715.59;10346958;28;20242;-75
2021/07/25 06:38:25;;;;;;;29.35;17.67;;;;;;;18.81;77.42;99726.66;10340372;28;20785;-75
2021/07/25 06:43:29;;;;;;;25.08;15.48;;;;;;;18.96;76.08;99730.19;10336052;28;20227;-75
2021/07/25 06:48:33;;;;;;;25.55;17.13;;;;;;;19.29;72.99;99728.78;10345033;28;20245;-74
2021/07/25 06:53:36;;;;;;;28.17;15.25;;;;;;;19.77;74.01;99728.94;10331963;28;20612;-75
2021/07/25 06:58:41;;;;;;;25.70;16.05;;;;;;;20.01;71.04;99731.16;10333926;28;20234;-75
2021/07/25 07:03:44;;;;;;;22.08;14.23;;;;;;;20.19;69.27;99733.34;10358216;28;20738;-76
2021/07/25 07:08:47;;;;;;;22.80;14.68;;;;;;;19.85;68.10;99734.22;10381106;28;20234;-75
2021/07/25 07:13:54;;;;;;;22.92;14.73;;;;;;;20.02;69.27;99756.53;10372411;28;20226;-75
2021/07/25 07:18:57;;;;;;;22.48;13.57;;;;;;;19.84;67.56;99760.63;10366931;28;20241;-74
2021/07/25 07:24:00;;;;;;;22.73;13.50;;;;;;;20.00;69.23;99756.75;10374859;28;20734;-75
2021/07/25 07:29:04;;;;;;;18.67;12.57;;;;;;;20.60;68.19;99761.63;10362110;28;20234;-75
2021/07/25 07:34:07;;;;;;;18.50;12.00;;;;;;;20.60;64.85;99769.81;10375544;28;20269;-73
2021/07/25 07:39:10;;;;;;;22.05;12.30;;;;;;;20.66;65.03;99763.56;10364029;28;20242;-75
2021/07/25 07:44:14;;;;;;;19.75;12.48;;;;;;;21.27;62.30;99768.94;10333885;28;20234;-74
2021/07/25 07:49:17;;;;;;;18.15;12.70;;;;;;;21.53;63.87;99764.50;10322255;28;20238;-74
2021/07/25 07:54:20;;;;;;;14.90;11.02;;;;;;;21.92;63.46;99760.09;10322417;28;20238;-74
2021/07/25 07:59:24;;;;;;;16.13;10.88;;;;;;;22.71;61.75;99772.66;10292660;28;20231;-74
2021/07/25 08:04:28;;;;;;;20.20;11.90;;;;;;;23.21;56.46;99764.56;10331935;28;20245;-74
2021/07/25 08:09:30;;;;;;;17.63;12.10;;;;;;;23.10;58.95;99754.28;10326916;28;20246;-74
2021/07/25 08:14:36;;;;;;;14.63;11.10;;;;;;;22.48;60.53;99759.50;10319547;28;20234;-74
2021/07/25 08:19:38;;;;;;;18.55;13.07;;;;;;;22.32;58.55;99769.88;10307596;28;20238;-74
2021/07/25 08:24:41;;;;;;;20.38;12.98;;;;;;;22.55;60.16;99768.53;10315355;28;20257;-74
2021/07/25 08:29:46;;;;;;;17.35;13.23;;;;;;;23.21;56.88;99754.44;10320361;28;20230;-74
2021/07/25 08:34:49;;;;;;;17.92;11.88;;;;;;;23.20;57.14;99780.16;10323897;28;20612;-74
2021/07/25 08:39:52;;;;;;;19.25;13.35;;;;;;;22.88;56.71;99773.81;10331023;28;20238;-74
2021/07/25 08:44:57;;;;;;;18.38;12.48;;;;;;;22.60;56.98;99771.44;10323589;28;20241;-74
2021/07/25 08:50:01;;;;;;;17.02;12.40;;;;;;;23.32;55.94;99777.53;10307367;28;20242;-74
2021/07/25 08:55:10;;;;;;;14.55;10.90;;;;;;;23.83;53.43;99772.88;10326336;28;20241;-74
2021/07/25 09:00:16;;;;;;;17.33;12.25;;;;;;;24.64;52.28;99785.50;10323750;28;20254;-75
2021/07/25 09:05:20;;;;;;;17.83;12.82;;;;;;;24.32;51.57;99782.06;10328619;28;20245;-75
2021/07/25 09:10:23;;;;;;;19.05;12.82;;;;;;;23.38;53.52;99782.13;10325800;28;20231;-75
2021/07/25 09:15:30;;;;;;;19.50;12.50;;;;;;;23.18;54.05;99789.66;10315336;28;20947;-74
2021/07/25 09:20:34;;;;;;;17.23;12.50;;;;;;;22.96;55.17;99786.41;10350690;28;20246;-74
2021/07/25 09:25:41;;;;;;;18.10;12.95;;;;;;;23.20;55.13;99788.38;10349290;28;20384;-74
2021/07/25 09:30:45;;;;;;;24.42;13.45;;;;;;;23.05;55.61;99792.47;10334741;28;20626;-74
2021/07/25 09:35:48;;;;;;;14.98;10.55;;;;;;;23.16;54.50;99787.13;10338412;28;20234;-75
2021/07/25 09:40:52;;;;;;;15.05;11.15;;;;;;;23.75;53.51;99786.84;10336951;28;20249;-74
2021/07/25 09:45:58;;;;;;;15.15;12.02;;;;;;;25.48;49.18;99785.53;10337670;28;20235;-75
2021/07/25 09:51:03;;;;;;;15.90;10.52;;;;;;;24.80;50.00;99785.94;10346954;28;20230;-74
2021/07/25 09:56:23;;;;;;;13.40;8.73;;;;;;;23.90;51.26;99778.31;10325701;28;20229;-74
2021/07/25 10:01:41;;;;;;;13.88;8.57;;;;;;;23.48;51.80;99780.78;10341903;28;20237;-74
2021/07/25 10:06:46;;;;;;;9.82;6.57;;;;;;;24.12;48.93;99775.97;10344547;28;20779;-73
2021/07/25 10:11:53;;;;;;;9.05;6.10;;;;;;;24.67;47.27;99765.81;10347705;28;21267;-75
2021/07/25 10:17:01;;;;;;;10.38;6.70;;;;;;;25.59;45.85;99773.72;10345752;28;20230;-75
2021/07/25 10:22:12;;;;;;;7.63;5.75;;;;;;;25.53;45.25;99768.31;10347161;28;20329;-75
2021/07/25 10:27:17;;;;;;;5.40;4.45;;;;;;;25.44;43.52;99775.25;10346872;28;20237;-75
2021/07/25 10:32:23;;;;;;;6.70;4.45;;;;;;;26.08;44.59;99770.72;10312927;28;20267;-74
2021/07/25 10:37:27;;;;;;;4.75;4.28;;;;;;;25.99;43.43;99767.50;10325990;28;20247;-75
2021/07/25 10:42:32;;;;;;;5.93;4.40;;;;;;;25.54;43.58;99764.50;10319345;28;20235;-75
2021/07/25 10:47:36;;;;;;;7.97;4.80;;;;;;;25.80;43.50;99758.53;10327649;28;20253;-76
2021/07/25 10:53:03;;;;;;;6.40;4.35;;;;;;;25.48;44.27;99770.94;10333542;28;20241;-76
2021/07/25 10:58:07;;;;;;;5.43;4.43;;;;;;;25.50;44.09;99752.31;10322581;28;20235;-76
2021/07/25 11:03:45;;;;;;;5.40;3.88;;;;;;;25.32;43.56;99764.25;10324138;28;20231;-75
2021/07/25 11:08:51;;;;;;;6.55;4.40;;;;;;;25.96;43.95;99761.66;10339211;28;20238;-75
2021/07/25 11:13:54;;;;;;;6.68;4.65;;;;;;;26.66;42.22;99758.75;10336964;28;20295;-75
2021/07/25 11:19:00;;;;;;;6.45;4.93;;;;;;;27.44;40.21;99761.00;10346751;28;20237;-75
2021/07/25 11:24:37;;;;;;;5.15;3.92;;;;;;;27.24;41.66;99753.22;10345832;28;20233;-75
2021/07/25 11:29:45;;;;;;;5.65;4.20;;;;;;;27.57;39.68;99739.44;10345329;28;20238;-74
2021/07/25 11:34:49;;;;;;;5.05;3.92;;;;;;;27.66;38.83;99734.31;10338775;28;20230;-76
2021/07/25 11:39:53;;;;;;;4.93;3.92;;;;;;;27.58;39.87;99746.63;10346207;28;20733;-76
2021/07/25 11:45:01;;;;;;;5.65;4.20;;;;;;;28.08;38.08;99744.03;10345459;28;20734;-75
2021/07/25 11:50:06;;;;;;;5.32;3.78;;;;;;;27.77;37.50;99751.88;10346012;28;20230;-76
2021/07/25 11:55:11;;;;;;;4.07;3.67;;;;;;;28.69;37.01;99733.78;10344332;28;20234;-76
2021/07/25 12:00:15;;;;;;;4.45;3.70;;;;;;;28.73;36.68;99743.19;10347553;28;20811;-75
2021/07/25 12:05:21;;;;;;;5.50;3.70;;;;;;;29.59;35.26;99753.38;10346518;28;20238;-76
2021/07/25 12:10:29;;;;;;;4.00;3.60;;;;;;;28.30;35.96;99744.03;10316919;28;20299;-76
2021/07/25 12:15:32;;;;;;;5.57;3.70;;;;;;;29.31;34.79;99733.25;10347065;28;20239;-76
2021/07/25 12:20:36;;;;;;;4.15;3.03;;;;;;;29.20;35.60;99733.44;10323336;28;20745;-76
2021/07/25 12:25:53;;;;;;;4.40;3.80;;;;;;;29.33;35.24;99733.81;10323602;28;20237;-76
2021/07/25 12:30:57;;;;;;;5.53;3.50;;;;;;;30.84;32.21;99730.47;10312524;28;20249;-75
2021/07/25 12:36:11;;;;;;;3.75;3.20;;;;;;;29.76;34.19;99756.84;10306889;28;20229;-75
2021/07/25 12:41:14;;;;;;;4.07;2.97;;;;;;;28.40;36.80;99735.88;10321873;28;20807;-75
2021/07/25 12:46:28;;;;;;;5.07;3.83;;;;;;;27.66;38.01;99744.53;10331776;28;20227;-75
2021/07/25 12:51:42;;;;;;;6.72;5.38;;;;;;;28.88;38.75;99729.53;10331178;28;20280;-76
2021/07/25 12:56:45;;;;;;;7.38;5.80;;;;;;;29.95;37.74;99732.34;10333289;28;20231;-76
2021/07/25 13:07:07;;;;;;;8.10;6.38;;;;;;;30.01;37.36;99734.03;10336344;28;20845;-76
2021/07/25 13:12:10;;;;;;;7.97;6.15;;;;;;;29.87;37.98;99729.22;10330617;28;20612;-76
2021/07/25 13:17:13;;;;;;;7.05;6.10;;;;;;;30.00;38.56;99720.44;10330165;28;20317;-76
2021/07/25 13:22:17;;;;;;;7.70;5.57;;;;;;;30.16;37.52;99713.06;10333191;28;20241;-76
2021/07/25 13:27:20;;;;;;;6.88;5.80;;;;;;;28.47;40.21;99720.78;10351860;28;20238;-74
2021/07/25 13:32:23;;;;;;;6.93;5.70;;;;;;;28.86;39.83;99728.97;10347870;28;20246;-76
2021/07/25 13:37:28;;;;;;;8.02;5.63;;;;;;;27.88;40.14;99728.00;10351324;28;20321;-76
2021/07/25 13:42:32;;;;;;;5.80;4.97;;;;;;;27.35;42.04;99733.00;10351112;28;20242;-76
2021/07/25 13:47:35;;;;;;;7.22;5.25;;;;;;;27.04;41.12;99728.88;10352266;28;20258;-75
2021/07/25 13:52:40;;;;;;;6.22;4.57;;;;;;;27.11;41.66;99740.59;10350293;28;20264;-75
2021/07/25 13:57:43;;;;;;;5.22;4.72;;;;;;;29.03;37.64;99726.06;10351615;28;20281;-75
2021/07/25 14:02:46;;;;;;;5.28;3.92;;;;;;;29.53;37.32;99733.13;10352230;28;20247;-75
2021/07/25 14:07:52;;;;;;;7.28;4.82;;;;;;;28.87;38.19;99738.09;10350913;28;20309;-74
2021/07/25 14:12:55;;;;;;;6.20;4.30;;;;;;;28.55;39.29;99736.09;10350615;28;20742;-74
2021/07/25 14:18:02;;;;;;;4.38;3.97;;;;;;;27.25;39.54;99739.16;10353204;28;20368;-72
2021/07/25 14:23:06;;;;;;;5.68;3.70;;;;;;;27.09;39.94;99751.00;10351775;28;20241;-75
2021/07/25 14:28:09;;;;;;;5.82;3.97;;;;;;;29.36;36.83;99747.13;10349000;28;20246;-75
2021/07/25 14:33:12;;;;;;;5.18;3.90;;;;;;;29.74;35.17;99734.16;10351365;28;20259;-75
2021/07/25 14:38:17;;;;;;;4.80;4.05;;;;;;;30.50;34.57;99720.94;10352263;28;20793;-76
2021/07/25 14:43:19;;;;;;;3.95;3.40;;;;;;;30.91;32.92;99730.22;10352152;28;20230;-75
2021/07/25 14:48:22;;;;;;;4.90;3.95;;;;;;;31.11;32.05;99723.84;10347605;28;20625;-75
2021/07/25 14:53:27;;;;;;;5.82;4.18;;;;;;;29.59;34.88;99725.69;10331593;28;20341;-75
2021/07/25 14:58:30;;;;;;;5.35;3.70;;;;;;;30.60;33.90;99712.66;10348331;28;20268;-76
2021/07/25 15:03:33;;;;;;;3.92;3.50;;;;;;;30.15;34.70;99709.47;10329910;28;20458;-75
2021/07/25 15:08:38;;;;;;;4.35;3.88;;;;;;;28.81;35.71;99703.22;10322182;28;20242;-75
2021/07/25 15:13:41;;;;;;;4.90;3.65;;;;;;;28.00;37.07;99710.28;10334834;28;20238;-75
2021/07/25 15:18:44;;;;;;;4.13;3.38;;;;;;;27.47;37.98;99697.06;10329155;28;20746;-75
2021/07/25 15:23:48;;;;;;;3.97;3.40;;;;;;;27.29;38.58;99695.38;10325331;28;20227;-77
2021/07/25 15:28:51;;;;;;;4.05;3.40;;;;;;;27.27;38.34;99694.81;10327592;28;20250;-75
2021/07/25 15:33:55;;;;;;;3.78;3.35;;;;;;;27.18;39.00;99689.72;10324179;28;20230;-75
2021/07/25 15:39:00;;;;;;;4.20;3.13;;;;;;;26.20;41.87;99685.41;10329936;28;20622;-76
2021/07/25 15:44:02;;;;;;;3.90;3.25;;;;;;;26.13;42.04;99690.19;10337935;28;20253;-75
2021/07/25 15:49:05;;;;;;;5.25;3.35;;;;;;;25.92;41.45;99689.78;10348074;28;20245;-75
2021/07/25 15:54:10;;;;;;;4.03;3.35;;;;;;;26.04;41.66;99685.06;10344854;28;20234;-76
2021/07/25 15:59:13;;;;;;;3.72;3.10;;;;;;;26.97;40.76;99679.44;10329061;28;20245;-76
2021/07/25 16:04:17;;;;;;;3.80;3.00;;;;;;;28.80;38.69;99669.22;10329586;28;20241;-76
2021/07/25 16:09:22;;;;;;;8.98;3.10;;;;;;;28.45;37.03;99673.25;10323497;28;20309;-75
2021/07/25 16:14:24;;;;;;;3.40;3.10;;;;;;;27.41;38.33;99679.63;10331778;28;20268;-75
2021/07/25 16:19:28;;;;;;;5.93;3.33;;;;;;;27.59;38.45;99673.84;10332511;28;20328;-75
2021/07/25 16:24:34;;;;;;;4.60;3.25;;;;;;;26.91;40.54;99681.28;10349141;28;20260;-74
2021/07/25 16:29:37;;;;;;;3.58;3.28;;;;;;;26.25;40.98;99674.53;10285323;28;20247;-75
2021/07/25 16:34:40;;;;;;;5.32;3.13;;;;;;;25.80;42.38;99681.53;10313138;28;20239;-75
2021/07/25 16:39:44;;;;;;;3.97;3.17;;;;;;;25.63;42.97;99670.44;10313735;28;21502;-74
2021/07/25 16:44:47;;;;;;;4.22;3.60;;;;;;;25.25;44.56;99673.66;10313014;28;20231;-74
2021/07/25 16:49:50;;;;;;;6.90;4.15;;;;;;;25.37;44.62;99669.00;10312045;28;20243;-75
2021/07/25 16:54:55;;;;;;;5.57;3.85;;;;;;;25.14;45.61;99663.50;10314690;28;20715;-74
2021/07/25 16:59:59;;;;;;;6.55;3.67;;;;;;;25.30;45.29;99664.69;10318867;28;20262;-77
2021/07/25 17:05:02;;;;;;;6.13;3.88;;;;;;;25.47;44.97;99657.38;10312628;28;20234;-74
2021/07/25 17:10:08;;;;;;;6.53;4.03;;;;;;;25.65;44.41;99661.97;10312377;28;20248;-74
2021/07/25 17:15:11;;;;;;;5.32;3.88;;;;;;;25.78;44.14;99658.97;10312194;28;21431;-74
2021/07/25 17:20:14;;;;;;;5.22;3.65;;;;;;;27.20;42.06;99659.13;10312366;28;20234;-75
2021/07/25 17:25:19;;;;;;;4.38;3.90;;;;;;;27.20;41.48;99650.88;10310016;28;20238;-75
2021/07/25 17:30:22;;;;;;;5.93;4.55;;;;;;;27.26;42.15;99658.16;10312774;28;20235;-75
2021/07/25 17:35:25;;;;;;;5.28;4.00;;;;;;;32.29;34.03;99657.00;10313580;28;20231;-76
2021/07/25 17:40:29;;;;;;;4.78;3.90;;;;;;;35.71;29.63;99657.53;10312419;28;20284;-75
2021/07/25 17:45:32;;;;;;;4.63;4.10;;;;;;;36.01;28.33;99653.28;10309924;28;20231;-75
2021/07/25 17:50:35;;;;;;;5.00;3.80;;;;;;;34.52;30.46;99655.06;10294612;28;20242;-74
2021/07/25 17:55:40;;;;;;;4.57;3.95;;;;;;;34.53;29.91;99655.88;10349754;28;20228;-75
2021/07/25 18:00:43;;;;;;;6.50;4.00;;;;;;;33.52;31.12;99656.88;10347780;28;20241;-76
2021/07/25 18:05:46;;;;;;;5.40;3.88;;;;;;;29.75;36.45;99665.78;10347160;28;21819;-75
2021/07/25 18:10:51;;;;;;;4.68;3.88;;;;;;;27.74;40.52;99672.38;10351809;28;20241;-75
2021/07/25 18:15:53;;;;;;;6.13;4.13;;;;;;;26.45;44.12;99698.84;10346476;28;20337;-74
2021/07/25 18:20:57;;;;;;;4.43;4.03;;;;;;;25.35;46.65;99698.63;10349054;28;20234;-75
2021/07/25 18:26:01;;;;;;;4.90;3.95;;;;;;;24.95;47.78;99701.19;10348864;28;20237;-75
2021/07/25 18:31:04;;;;;;;5.93;4.50;;;;;;;24.58;49.71;99706.81;10346629;28;20234;-75
2021/07/25 18:36:07;;;;;;;5.65;4.25;;;;;;;24.17;49.23;99707.53;10347878;28;20238;-75
2021/07/25 18:41:12;;;;;;;6.05;4.35;;;;;;;23.96;49.59;99706.09;10348132;28;20238;-75
2021/07/25 18:46:31;;;;;;;7.43;4.35;;;;;;;23.75;50.14;99710.94;10348467;28;20726;-74
2021/07/25 18:51:35;;;;;;;5.68;4.43;;;;;;;23.63;50.03;99707.25;10346600;28;20246;-74
2021/07/25 18:56:41;;;;;;;5.30;4.18;;;;;;;23.54;50.82;99712.22;10349359;28;20233;-75
2021/07/25 19:01:44;;;;;;;5.60;4.63;;;;;;;23.21;51.36;99726.22;10348018;28;20246;-74
2021/07/25 19:06:51;;;;;;;5.65;4.60;;;;;;;23.16;52.06;99717.81;10345939;28;20226;-75
2021/07/25 19:11:55;;;;;;;6.53;4.50;;;;;;;23.10;51.93;99727.75;10347768;28;20227;-75
2021/07/25 19:16:58;;;;;;;6.28;4.85;;;;;;;22.95;52.16;99729.94;10329904;28;20234;-75
2021/07/25 19:22:03;;;;;;;5.82;4.80;;;;;;;22.94;52.44;99728.28;10347851;28;20245;-74
2021/07/25 19:27:07;;;;;;;9.40;4.97;;;;;;;22.89;53.49;99726.19;10346499;28;20249;-74
2021/07/25 19:32:10;;;;;;;6.60;4.75;;;;;;;22.64;54.96;99733.53;10349686;28;20700;-74
2021/07/25 19:37:13;;;;;;;5.70;4.75;;;;;;;22.38;55.45;99739.94;10349206;28;20996;-75
2021/07/25 19:42:22;;;;;;;5.20;4.65;;;;;;;22.06;55.98;99739.88;10347001;28;20230;-75
2021/07/25 19:47:25;;;;;;;6.30;4.88;;;;;;;22.02;56.49;99747.66;10348260;28;20238;-75
2021/07/25 19:52:31;;;;;;;8.10;5.03;;;;;;;22.08;56.36;99748.69;10330429;28;20238;-75
2021/07/25 19:57:47;;;;;;;9.52;5.57;;;;;;;21.89;56.93;99759.47;10347955;28;20807;-75
2021/07/25 20:03:07;;;;;;;6.20;4.70;;;;;;;21.78;57.08;99754.66;10331698;28;20238;-78
2021/07/25 20:08:10;;;;;;;6.80;4.60;;;;;;;21.62;58.02;99768.72;10348929;28;20360;-75
2021/07/25 20:13:15;;;;;;;6.95;5.28;;;;;;;21.68;57.55;99770.59;10352387;28;21760;-75
2021/07/25 20:18:19;;;;;;;7.32;4.95;;;;;;;21.30;58.38;99792.25;10322175;28;20239;-76
2021/07/25 20:23:23;;;;;;;7.90;4.97;;;;;;;20.36;60.82;99793.03;10289075;28;20243;-76
2021/07/25 20:28:28;;;;;;;8.57;5.60;;;;;;;20.56;60.72;99789.31;10290271;28;20269;-77
2021/07/25 20:33:31;;;;;;;7.32;5.00;;;;;;;20.91;59.84;99800.16;10329371;28;20235;-77
2021/07/25 20:38:34;;;;;;;7.22;5.05;;;;;;;20.90;60.11;99806.66;10359522;28;20254;-77
2021/07/25 20:43:40;;;;;;;9.00;5.55;;;;;;;20.89;60.01;99807.69;10347063;28;20238;-76
2021/07/25 20:48:44;;;;;;;7.85;5.45;;;;;;;20.93;60.33;99808.16;10355764;28;20253;-77
2021/07/25 20:54:06;;;;;;;9.55;6.25;;;;;;;20.91;59.98;99807.50;10365865;28;20247;-77
2021/07/25 20:59:28;;;;;;;8.45;6.32;;;;;;;20.87;60.44;99807.09;10378629;28;20749;-77
2021/07/25 21:04:40;;;;;;;8.30;6.57;;;;;;;20.94;60.34;99812.56;10362821;28;20635;-77
2021/07/25 21:09:44;;;;;;;6.50;5.78;;;;;;;20.95;60.16;99814.22;10372457;28;20234;-77
2021/07/25 21:14:48;;;;;;;8.38;6.60;;;;;;;21.01;60.12;99821.59;10372205;28;20234;-77
2021/07/25 21:19:51;;;;;;;9.32;5.72;;;;;;;20.99;60.54;99823.69;10358974;28;20245;-77
2021/07/25 21:24:54;;;;;;;7.35;5.72;;;;;;;20.89;60.70;99828.69;10373826;28;20968;-77
2021/07/25 21:29:58;;;;;;;7.30;6.00;;;;;;;20.80;61.60;99822.59;10373823;28;20238;-77
2021/07/25 21:35:01;;;;;;;7.63;5.75;;;;;;;20.85;60.96;99824.72;10375384;28;20238;-77
2021/07/25 21:40:05;;;;;;;6.57;5.30;;;;;;;20.80;61.05;99819.84;10376120;28;20242;-77
2021/07/25 21:45:10;;;;;;;7.60;5.70;;;;;;;20.83;61.55;99824.91;10359339;28;20234;-77
2021/07/25 21:50:13;;;;;;;8.15;5.35;;;;;;;20.76;61.30;99830.34;10339990;28;20234;-77
2021/07/25 21:55:16;;;;;;;8.02;4.93;;;;;;;20.78;61.65;99828.25;10357892;28;20332;-77
2021/07/25 22:00:20;;;;;;;9.70;5.82;;;;;;;20.82;61.97;99830.59;10356759;28;20242;-77
2021/07/25 22:05:23;;;;;;;6.90;5.40;;;;;;;20.69;62.03;99828.63;10357107;28;20242;-77
2021/07/25 22:10:26;;;;;;;10.55;5.93;;;;;;;20.60;62.04;99830.72;10353989;28;20249;-77
2021/07/25 22:15:30;;;;;;;7.75;5.65;;;;;;;20.59;61.77;99831.75;10354698;28;20610;-77
2021/07/25 22:20:33;;;;;;;8.85;5.47;;;;;;;20.60;61.80;99818.94;10331523;28;20247;-77
2021/07/25 22:25:36;;;;;;;6.85;5.00;;;;;;;20.60;61.89;99818.94;10338731;28;20707;-77
2021/07/25 22:30:41;;;;;;;7.00;5.05;;;;;;;20.57;61.83;99822.94;10332133;28;20239;-77
2021/07/25 22:35:44;;;;;;;7.57;5.05;;;;;;;20.39;62.06;99817.19;10335247;28;20237;-77
2021/07/25 22:40:47;;;;;;;7.90;5.68;;;;;;;20.32;62.47;99817.13;10336139;28;20617;-77
2021/07/25 22:45:51;;;;;;;8.48;5.32;;;;;;;20.20;63.13;99830.47;10313036;28;20247;-77
2021/07/25 22:50:58;;;;;;;6.53;5.03;;;;;;;20.16;63.51;99822.88;10342711;28;20742;-77
2021/07/25 22:56:00;;;;;;;7.32;5.40;;;;;;;20.23;63.39;99813.69;10355553;28;20237;-77
2021/07/25 23:01:06;;;;;;;8.93;5.20;;;;;;;20.18;63.59;99816.19;10335626;28;20313;-77
2021/07/25 23:06:09;;;;;;;6.65;5.25;;;;;;;20.04;63.87;99808.97;10353633;28;20817;-77
2021/07/25 23:11:12;;;;;;;10.38;5.78;;;;;;;19.90;64.32;99813.50;10352098;28;20237;-77
2021/07/25 23:16:16;;;;;;;9.52;5.15;;;;;;;19.73;64.88;99814.84;10354067;28;20231;-77
2021/07/25 23:21:19;;;;;;;8.85;5.70;;;;;;;19.62;65.33;99811.63;10351507;28;20345;-77
2021/07/25 23:26:22;;;;;;;7.47;5.28;;;;;;;19.50;65.58;99820.47;10352430;28;20642;-77
2021/07/25 23:31:26;;;;;;;6.07;4.93;;;;;;;19.38;65.84;99812.00;10351192;28;20236;-77